Terminal Aerodrome Forecast
Issued by NWS Wilmington, OH

Current Version | Previous Version | Text Only | Print | Product List | Glossary Off
Versions: 1 2 3 4 5 6 7 8 9 10 11 12 13 14 15 16 17 18 19 20 21

000
FTUS41 KILN 022300
TAFCVG
TAF
KCVG 022322Z 0300/0406 24005KT P6SM SCT090
     FM030400 21003KT P6SM BKN250
     FM031300 19006KT P6SM SCT250
     FM031700 20008KT P6SM SCT060
     FM040000 17004KT P6SM SCT090=

USA.gov is the U.S. government's official web portal to all federal, state and local government web resources and services.